sensor_id;sensor_type;location;lat;lon;timestamp;P1;durP1;ratioP1;P2;durP2;ratioP2
21472;SDS011;10898;48.072;11.682;2023-03-26T00:01:27;2.55;;;1.05;;
21472;SDS011;10898;48.072;11.682;2023-03-26T00:03:34;3.13;;;1.23;;
21472;SDS011;10898;48.072;11.682;2023-03-26T00:05:38;2.72;;;1.30;;
21472;SDS011;10898;48.072;11.682;2023-03-26T00:07:40;2.60;;;1.42;;
21472;SDS011;10898;48.072;11.682;2023-03-26T00:09:42;2.40;;;1.17;;
21472;SDS011;10898;48.072;11.682;2023-03-26T00:11:44;3.13;;;1.17;;
21472;SDS011;10898;48.072;11.682;2023-03-26T00:13:49;4.05;;;1.42;;
21472;SDS011;10898;48.072;11.682;2023-03-26T00:15:53;4.38;;;1.25;;
21472;SDS011;10898;48.072;11.682;2023-03-26T00:17:55;2.03;;;1.05;;
21472;SDS011;10898;48.072;11.682;2023-03-26T00:19:57;3.17;;;1.87;;
21472;SDS011;10898;48.072;11.682;2023-03-26T00:21:59;1.80;;;1.20;;
21472;SDS011;10898;48.072;11.682;2023-03-26T00:24:05;2.53;;;1.40;;
21472;SDS011;10898;48.072;11.682;2023-03-26T00:26:09;4.07;;;1.23;;
21472;SDS011;10898;48.072;11.682;2023-03-26T00:28:11;5.10;;;1.60;;
21472;SDS011;10898;48.072;11.682;2023-03-26T00:30:13;3.20;;;1.45;;
21472;SDS011;10898;48.072;11.682;2023-03-26T00:32:16;2.63;;;1.45;;
21472;SDS011;10898;48.072;11.682;2023-03-26T00:34:18;7.72;;;2.00;;
21472;SDS011;10898;48.072;11.682;2023-03-26T00:36:21;5.82;;;1.50;;
21472;SDS011;10898;48.072;11.682;2023-03-26T00:38:26;3.22;;;1.25;;
21472;SDS011;10898;48.072;11.682;2023-03-26T00:40:29;3.03;;;1.40;;
21472;SDS011;10898;48.072;11.682;2023-03-26T00:42:32;2.15;;;1.40;;
21472;SDS011;10898;48.072;11.682;2023-03-26T00:44:34;3.63;;;1.40;;
21472;SDS011;10898;48.072;11.682;2023-03-26T00:46:36;4.18;;;1.58;;
21472;SDS011;10898;48.072;11.682;2023-03-26T00:48:38;4.22;;;1.42;;
21472;SDS011;10898;48.072;11.682;2023-03-26T00:50:46;4.10;;;1.25;;
21472;SDS011;10898;48.072;11.682;2023-03-26T00:52:49;3.10;;;1.60;;
21472;SDS011;10898;48.072;11.682;2023-03-26T00:54:52;2.15;;;1.40;;
21472;SDS011;10898;48.072;11.682;2023-03-26T00:56:54;3.85;;;1.30;;
21472;SDS011;10898;48.072;11.682;2023-03-26T00:59:00;3.30;;;1.55;;
21472;SDS011;10898;48.072;11.682;2023-03-26T01:01:03;6.47;;;2.00;;
21472;SDS011;10898;48.072;11.682;2023-03-26T01:03:09;4.82;;;1.60;;
21472;SDS011;10898;48.072;11.682;2023-03-26T01:07:35;2.60;;;1.40;;
21472;SDS011;10898;48.072;11.682;2023-03-26T01:09:40;5.13;;;1.63;;
21472;SDS011;10898;48.072;11.682;2023-03-26T01:11:46;4.97;;;1.50;;
21472;SDS011;10898;48.072;11.682;2023-03-26T01:14:11;5.45;;;1.90;;
21472;SDS011;10898;48.072;11.682;2023-03-26T01:16:24;4.35;;;1.50;;
21472;SDS011;10898;48.072;11.682;2023-03-26T01:18:31;3.25;;;1.75;;
21472;SDS011;10898;48.072;11.682;2023-03-26T01:20:41;5.57;;;1.63;;
21472;SDS011;10898;48.072;11.682;2023-03-26T01:22:48;6.82;;;1.83;;
21472;SDS011;10898;48.072;11.682;2023-03-26T01:24:53;3.33;;;1.35;;
21472;SDS011;10898;48.072;11.682;2023-03-26T01:31:51;4.50;;;1.77;;
21472;SDS011;10898;48.072;11.682;2023-03-26T01:36:40;2.97;;;1.35;;
21472;SDS011;10898;48.072;11.682;2023-03-26T01:41:32;4.82;;;1.55;;
21472;SDS011;10898;48.072;11.682;2023-03-26T01:46:08;4.90;;;1.80;;
21472;SDS011;10898;48.072;11.682;2023-03-26T01:48:11;5.15;;;1.60;;
21472;SDS011;10898;48.072;11.682;2023-03-26T01:50:14;3.20;;;1.55;;
21472;SDS011;10898;48.072;11.682;2023-03-26T01:52:20;7.03;;;1.52;;
21472;SDS011;10898;48.072;11.682;2023-03-26T01:54:26;4.40;;;1.60;;
21472;SDS011;10898;48.072;11.682;2023-03-26T01:56:34;4.80;;;1.80;;
21472;SDS011;10898;48.072;11.682;2023-03-26T02:03:11;6.15;;;2.15;;
21472;SDS011;10898;48.072;11.682;2023-03-26T02:05:34;5.38;;;2.17;;
21472;SDS011;10898;48.072;11.682;2023-03-26T02:07:41;3.60;;;1.50;;
21472;SDS011;10898;48.072;11.682;2023-03-26T02:09:46;5.97;;;1.52;;
21472;SDS011;10898;48.072;11.682;2023-03-26T02:11:52;6.18;;;2.05;;
21472;SDS011;10898;48.072;11.682;2023-03-26T02:13:55;7.55;;;2.10;;
21472;SDS011;10898;48.072;11.682;2023-03-26T02:15:59;6.05;;;1.85;;
21472;SDS011;10898;48.072;11.682;2023-03-26T02:18:02;7.07;;;2.03;;
21472;SDS011;10898;48.072;11.682;2023-03-26T02:20:08;5.15;;;1.60;;
21472;SDS011;10898;48.072;11.682;2023-03-26T02:22:12;6.72;;;1.95;;
21472;SDS011;10898;48.072;11.682;2023-03-26T02:24:17;5.70;;;1.63;;
21472;SDS011;10898;48.072;11.682;2023-03-26T02:28:21;4.22;;;1.70;;
21472;SDS011;10898;48.072;11.682;2023-03-26T02:30:23;4.67;;;1.33;;
21472;SDS011;10898;48.072;11.682;2023-03-26T02:34:29;4.07;;;1.65;;
21472;SDS011;10898;48.072;11.682;2023-03-26T02:36:31;3.60;;;1.65;;
21472;SDS011;10898;48.072;11.682;2023-03-26T02:38:33;4.70;;;1.90;;
21472;SDS011;10898;48.072;11.682;2023-03-26T02:40:35;8.50;;;1.90;;
21472;SDS011;10898;48.072;11.682;2023-03-26T02:42:37;4.38;;;1.90;;
21472;SDS011;10898;48.072;11.682;2023-03-26T02:44:39;4.90;;;1.60;;
21472;SDS011;10898;48.072;11.682;2023-03-26T02:46:41;5.68;;;1.98;;
21472;SDS011;10898;48.072;11.682;2023-03-26T02:48:42;5.10;;;1.47;;
21472;SDS011;10898;48.072;11.682;2023-03-26T02:50:44;6.03;;;1.60;;
21472;SDS011;10898;48.072;11.682;2023-03-26T02:52:50;3.20;;;1.48;;
21472;SDS011;10898;48.072;11.682;2023-03-26T02:54:51;4.07;;;1.50;;
21472;SDS011;10898;48.072;11.682;2023-03-26T02:56:53;3.15;;;1.52;;
21472;SDS011;10898;48.072;11.682;2023-03-26T02:58:55;5.78;;;1.90;;
21472;SDS011;10898;48.072;11.682;2023-03-26T03:00:57;3.50;;;1.57;;
21472;SDS011;10898;48.072;11.682;2023-03-26T03:02:59;4.27;;;1.80;;
21472;SDS011;10898;48.072;11.682;2023-03-26T03:05:05;4.63;;;1.70;;
21472;SDS011;10898;48.072;11.682;2023-03-26T03:07:08;5.18;;;2.03;;
21472;SDS011;10898;48.072;11.682;2023-03-26T03:09:14;5.13;;;2.33;;
21472;SDS011;10898;48.072;11.682;2023-03-26T03:11:17;8.30;;;2.13;;
21472;SDS011;10898;48.072;11.682;2023-03-26T03:13:23;5.07;;;1.65;;
21472;SDS011;10898;48.072;11.682;2023-03-26T03:15:25;3.50;;;1.92;;
21472;SDS011;10898;48.072;11.682;2023-03-26T03:17:28;5.45;;;1.63;;
21472;SDS011;10898;48.072;11.682;2023-03-26T03:19:30;4.15;;;1.50;;
21472;SDS011;10898;48.072;11.682;2023-03-26T03:21:32;4.55;;;2.15;;
21472;SDS011;10898;48.072;11.682;2023-03-26T03:23:33;4.57;;;2.30;;
21472;SDS011;10898;48.072;11.682;2023-03-26T03:25:35;4.20;;;1.63;;
21472;SDS011;10898;48.072;11.682;2023-03-26T03:29:43;5.00;;;1.90;;
21472;SDS011;10898;48.072;11.682;2023-03-26T03:31:45;6.30;;;2.17;;
21472;SDS011;10898;48.072;11.682;2023-03-26T03:33:46;3.80;;;1.75;;
21472;SDS011;10898;48.072;11.682;2023-03-26T03:35:49;5.75;;;1.50;;
21472;SDS011;10898;48.072;11.682;2023-03-26T03:37:51;2.92;;;1.50;;
21472;SDS011;10898;48.072;11.682;2023-03-26T03:39:53;4.70;;;2.03;;
21472;SDS011;10898;48.072;11.682;2023-03-26T03:41:54;4.10;;;2.00;;
21472;SDS011;10898;48.072;11.682;2023-03-26T03:43:56;6.13;;;2.07;;
21472;SDS011;10898;48.072;11.682;2023-03-26T03:46:00;6.25;;;2.00;;
21472;SDS011;10898;48.072;11.682;2023-03-26T03:48:02;6.15;;;2.22;;
21472;SDS011;10898;48.072;11.682;2023-03-26T03:50:04;5.88;;;1.98;;
21472;SDS011;10898;48.072;11.682;2023-03-26T03:54:08;7.93;;;2.63;;
21472;SDS011;10898;48.072;11.682;2023-03-26T03:56:10;8.80;;;3.00;;
21472;SDS011;10898;48.072;11.682;2023-03-26T03:58:14;8.23;;;3.72;;
21472;SDS011;10898;48.072;11.682;2023-03-26T04:00:21;7.82;;;3.85;;
21472;SDS011;10898;48.072;11.682;2023-03-26T04:02:24;9.85;;;3.85;;
21472;SDS011;10898;48.072;11.682;2023-03-26T04:04:30;9.75;;;5.07;;
21472;SDS011;10898;48.072;11.682;2023-03-26T04:06:33;8.85;;;3.65;;
21472;SDS011;10898;48.072;11.682;2023-03-26T04:08:34;5.83;;;2.93;;
21472;SDS011;10898;48.072;11.682;2023-03-26T04:10:36;9.63;;;3.75;;
21472;SDS011;10898;48.072;11.682;2023-03-26T04:12:38;10.50;;;3.00;;
21472;SDS011;10898;48.072;11.682;2023-03-26T04:14:40;7.47;;;3.60;;
21472;SDS011;10898;48.072;11.682;2023-03-26T04:16:42;8.27;;;2.65;;
21472;SDS011;10898;48.072;11.682;2023-03-26T04:18:44;4.90;;;2.80;;
21472;SDS011;10898;48.072;11.682;2023-03-26T04:20:46;6.75;;;2.15;;
21472;SDS011;10898;48.072;11.682;2023-03-26T04:22:49;4.65;;;1.98;;
21472;SDS011;10898;48.072;11.682;2023-03-26T04:24:51;9.47;;;2.40;;
21472;SDS011;10898;48.072;11.682;2023-03-26T04:26:57;6.78;;;1.73;;
21472;SDS011;10898;48.072;11.682;2023-03-26T04:29:02;3.85;;;1.83;;
21472;SDS011;10898;48.072;11.682;2023-03-26T04:31:07;2.45;;;1.50;;
21472;SDS011;10898;48.072;11.682;2023-03-26T04:33:12;4.32;;;2.03;;
21472;SDS011;10898;48.072;11.682;2023-03-26T04:35:15;3.53;;;1.77;;
21472;SDS011;10898;48.072;11.682;2023-03-26T04:37:23;7.03;;;2.60;;
21472;SDS011;10898;48.072;11.682;2023-03-26T04:39:27;3.80;;;2.00;;
21472;SDS011;10898;48.072;11.682;2023-03-26T04:41:29;6.20;;;2.15;;
21472;SDS011;10898;48.072;11.682;2023-03-26T04:43:32;5.93;;;1.92;;
21472;SDS011;10898;48.072;11.682;2023-03-26T04:45:37;7.03;;;2.35;;
21472;SDS011;10898;48.072;11.682;2023-03-26T04:47:39;6.07;;;2.10;;
21472;SDS011;10898;48.072;11.682;2023-03-26T04:49:42;5.55;;;2.20;;
21472;SDS011;10898;48.072;11.682;2023-03-26T04:53:51;7.47;;;3.20;;
21472;SDS011;10898;48.072;11.682;2023-03-26T04:56:05;10.63;;;4.15;;
21472;SDS011;10898;48.072;11.682;2023-03-26T04:58:30;7.95;;;2.92;;
21472;SDS011;10898;48.072;11.682;2023-03-26T05:00:34;9.38;;;3.40;;
21472;SDS011;10898;48.072;11.682;2023-03-26T05:02:36;6.82;;;2.33;;
21472;SDS011;10898;48.072;11.682;2023-03-26T05:04:40;4.32;;;1.80;;
21472;SDS011;10898;48.072;11.682;2023-03-26T05:06:44;5.22;;;1.50;;
21472;SDS011;10898;48.072;11.682;2023-03-26T05:08:45;7.03;;;1.95;;
21472;SDS011;10898;48.072;11.682;2023-03-26T05:10:47;6.50;;;1.92;;
21472;SDS011;10898;48.072;11.682;2023-03-26T05:12:49;3.70;;;1.67;;
21472;SDS011;10898;48.072;11.682;2023-03-26T05:14:51;5.33;;;1.70;;
21472;SDS011;10898;48.072;11.682;2023-03-26T05:16:53;6.30;;;1.90;;
21472;SDS011;10898;48.072;11.682;2023-03-26T05:18:55;7.40;;;1.90;;
21472;SDS011;10898;48.072;11.682;2023-03-26T05:20:56;2.67;;;1.45;;
21472;SDS011;10898;48.072;11.682;2023-03-26T05:22:58;6.95;;;1.77;;
21472;SDS011;10898;48.072;11.682;2023-03-26T05:25:00;6.67;;;1.77;;
21472;SDS011;10898;48.072;11.682;2023-03-26T05:27:03;3.78;;;2.08;;
21472;SDS011;10898;48.072;11.682;2023-03-26T05:29:05;5.07;;;1.60;;
21472;SDS011;10898;48.072;11.682;2023-03-26T05:31:07;6.10;;;1.73;;
21472;SDS011;10898;48.072;11.682;2023-03-26T05:33:08;4.50;;;2.03;;
21472;SDS011;10898;48.072;11.682;2023-03-26T05:35:11;4.05;;;1.70;;
21472;SDS011;10898;48.072;11.682;2023-03-26T05:37:13;4.03;;;1.92;;
21472;SDS011;10898;48.072;11.682;2023-03-26T05:39:14;8.65;;;2.47;;
21472;SDS011;10898;48.072;11.682;2023-03-26T05:41:16;4.97;;;1.70;;
21472;SDS011;10898;48.072;11.682;2023-03-26T05:43:18;4.90;;;1.95;;
21472;SDS011;10898;48.072;11.682;2023-03-26T05:45:20;5.27;;;2.20;;
21472;SDS011;10898;48.072;11.682;2023-03-26T05:47:22;4.07;;;1.70;;
21472;SDS011;10898;48.072;11.682;2023-03-26T05:49:24;4.40;;;1.80;;
21472;SDS011;10898;48.072;11.682;2023-03-26T05:51:26;6.60;;;1.90;;
21472;SDS011;10898;48.072;11.682;2023-03-26T05:56:50;5.38;;;2.45;;
21472;SDS011;10898;48.072;11.682;2023-03-26T05:58:54;6.25;;;1.85;;
21472;SDS011;10898;48.072;11.682;2023-03-26T06:03:00;8.63;;;2.35;;
21472;SDS011;10898;48.072;11.682;2023-03-26T06:05:02;4.78;;;1.98;;
21472;SDS011;10898;48.072;11.682;2023-03-26T06:07:05;3.40;;;1.70;;
21472;SDS011;10898;48.072;11.682;2023-03-26T06:09:10;5.57;;;2.33;;
21472;SDS011;10898;48.072;11.682;2023-03-26T06:11:15;7.40;;;2.03;;
21472;SDS011;10898;48.072;11.682;2023-03-26T06:13:18;6.60;;;2.28;;
21472;SDS011;10898;48.072;11.682;2023-03-26T06:15:20;6.90;;;1.70;;
21472;SDS011;10898;48.072;11.682;2023-03-26T06:17:22;5.30;;;1.90;;
21472;SDS011;10898;48.072;11.682;2023-03-26T06:19:23;3.70;;;2.47;;
21472;SDS011;10898;48.072;11.682;2023-03-26T06:21:26;7.07;;;2.40;;
21472;SDS011;10898;48.072;11.682;2023-03-26T06:23:28;6.20;;;2.47;;
21472;SDS011;10898;48.072;11.682;2023-03-26T06:25:31;7.05;;;2.45;;
21472;SDS011;10898;48.072;11.682;2023-03-26T06:27:33;3.25;;;2.15;;
21472;SDS011;10898;48.072;11.682;2023-03-26T06:29:35;5.15;;;2.60;;
21472;SDS011;10898;48.072;11.682;2023-03-26T06:31:37;6.30;;;2.37;;
21472;SDS011;10898;48.072;11.682;2023-03-26T06:33:38;5.72;;;1.70;;
21472;SDS011;10898;48.072;11.682;2023-03-26T06:35:40;9.32;;;2.00;;
21472;SDS011;10898;48.072;11.682;2023-03-26T06:37:44;5.65;;;1.90;;
21472;SDS011;10898;48.072;11.682;2023-03-26T06:39:46;5.47;;;2.08;;
21472;SDS011;10898;48.072;11.682;2023-03-26T06:41:48;6.18;;;2.28;;
21472;SDS011;10898;48.072;11.682;2023-03-26T06:43:50;4.50;;;1.83;;
21472;SDS011;10898;48.072;11.682;2023-03-26T06:45:53;3.95;;;1.70;;
21472;SDS011;10898;48.072;11.682;2023-03-26T06:47:54;5.20;;;1.80;;
21472;SDS011;10898;48.072;11.682;2023-03-26T06:49:56;5.63;;;1.98;;
21472;SDS011;10898;48.072;11.682;2023-03-26T06:51:58;3.60;;;1.52;;
21472;SDS011;10898;48.072;11.682;2023-03-26T06:54:03;4.32;;;1.67;;
21472;SDS011;10898;48.072;11.682;2023-03-26T06:56:05;5.05;;;1.80;;
21472;SDS011;10898;48.072;11.682;2023-03-26T06:58:12;6.10;;;1.45;;
21472;SDS011;10898;48.072;11.682;2023-03-26T07:00:14;3.97;;;2.00;;
21472;SDS011;10898;48.072;11.682;2023-03-26T07:02:16;4.18;;;2.10;;
21472;SDS011;10898;48.072;11.682;2023-03-26T07:04:18;3.70;;;2.03;;
21472;SDS011;10898;48.072;11.682;2023-03-26T07:06:20;5.27;;;1.67;;
21472;SDS011;10898;48.072;11.682;2023-03-26T07:08:21;4.50;;;1.90;;
21472;SDS011;10898;48.072;11.682;2023-03-26T07:10:26;5.07;;;1.52;;
21472;SDS011;10898;48.072;11.682;2023-03-26T07:12:28;4.38;;;2.25;;
21472;SDS011;10898;48.072;11.682;2023-03-26T07:14:30;4.57;;;2.13;;
21472;SDS011;10898;48.072;11.682;2023-03-26T07:18:34;10.05;;;2.13;;
21472;SDS011;10898;48.072;11.682;2023-03-26T07:20:36;5.60;;;2.05;;
21472;SDS011;10898;48.072;11.682;2023-03-26T07:22:38;7.75;;;2.33;;
21472;SDS011;10898;48.072;11.682;2023-03-26T07:24:41;5.55;;;1.80;;
21472;SDS011;10898;48.072;11.682;2023-03-26T07:33:42;6.22;;;1.95;;
21472;SDS011;10898;48.072;11.682;2023-03-26T07:43:09;8.57;;;2.08;;
21472;SDS011;10898;48.072;11.682;2023-03-26T07:47:23;4.03;;;1.92;;
21472;SDS011;10898;48.072;11.682;2023-03-26T07:49:29;6.85;;;2.15;;
21472;SDS011;10898;48.072;11.682;2023-03-26T07:51:31;2.58;;;1.80;;
21472;SDS011;10898;48.072;11.682;2023-03-26T07:53:33;6.97;;;2.55;;
21472;SDS011;10898;48.072;11.682;2023-03-26T07:55:37;6.50;;;2.45;;
21472;SDS011;10898;48.072;11.682;2023-03-26T07:58:09;6.20;;;2.00;;
21472;SDS011;10898;48.072;11.682;2023-03-26T08:07:02;7.70;;;2.53;;
21472;SDS011;10898;48.072;11.682;2023-03-26T08:09:19;7.25;;;2.30;;
21472;SDS011;10898;48.072;11.682;2023-03-26T08:11:52;4.53;;;2.25;;
21472;SDS011;10898;48.072;11.682;2023-03-26T08:16:35;5.43;;;1.85;;
21472;SDS011;10898;48.072;11.682;2023-03-26T08:21:07;8.35;;;2.10;;
21472;SDS011;10898;48.072;11.682;2023-03-26T08:25:30;6.93;;;2.85;;
21472;SDS011;10898;48.072;11.682;2023-03-26T08:27:42;3.13;;;2.45;;
21472;SDS011;10898;48.072;11.682;2023-03-26T08:32:17;5.30;;;2.10;;
21472;SDS011;10898;48.072;11.682;2023-03-26T08:34:20;10.15;;;2.17;;
21472;SDS011;10898;48.072;11.682;2023-03-26T08:36:22;10.43;;;2.97;;
21472;SDS011;10898;48.072;11.682;2023-03-26T08:38:23;9.80;;;2.42;;
21472;SDS011;10898;48.072;11.682;2023-03-26T08:40:34;8.90;;;2.90;;
21472;SDS011;10898;48.072;11.682;2023-03-26T08:47:37;3.47;;;1.98;;
21472;SDS011;10898;48.072;11.682;2023-03-26T08:52:27;5.68;;;2.10;;
21472;SDS011;10898;48.072;11.682;2023-03-26T08:57:22;5.32;;;1.90;;
21472;SDS011;10898;48.072;11.682;2023-03-26T09:09:41;3.78;;;1.85;;
21472;SDS011;10898;48.072;11.682;2023-03-26T09:22:16;5.28;;;1.65;;
21472;SDS011;10898;48.072;11.682;2023-03-26T09:27:32;5.28;;;2.10;;
21472;SDS011;10898;48.072;11.682;2023-03-26T09:42:23;3.95;;;1.60;;
21472;SDS011;10898;48.072;11.682;2023-03-26T09:47:07;3.42;;;2.22;;
21472;SDS011;10898;48.072;11.682;2023-03-26T09:56:46;7.53;;;2.55;;
21472;SDS011;10898;48.072;11.682;2023-03-26T09:59:04;5.90;;;2.45;;
21472;SDS011;10898;48.072;11.682;2023-03-26T10:01:19;4.40;;;2.58;;
21472;SDS011;10898;48.072;11.682;2023-03-26T10:06:36;5.15;;;2.67;;
21472;SDS011;10898;48.072;11.682;2023-03-26T10:10:42;4.32;;;2.42;;
21472;SDS011;10898;48.072;11.682;2023-03-26T10:12:55;7.22;;;2.60;;
21472;SDS011;10898;48.072;11.682;2023-03-26T10:15:20;7.55;;;2.50;;
21472;SDS011;10898;48.072;11.682;2023-03-26T10:19:37;6.00;;;2.67;;
21472;SDS011;10898;48.072;11.682;2023-03-26T10:21:52;7.63;;;2.20;;
21472;SDS011;10898;48.072;11.682;2023-03-26T10:30:52;3.67;;;2.05;;
21472;SDS011;10898;48.072;11.682;2023-03-26T10:55:03;5.43;;;2.20;;
21472;SDS011;10898;48.072;11.682;2023-03-26T10:57:18;2.47;;;1.60;;
21472;SDS011;10898;48.072;11.682;2023-03-26T10:59:38;2.33;;;1.63;;
21472;SDS011;10898;48.072;11.682;2023-03-26T11:04:11;2.63;;;1.77;;
21472;SDS011;10898;48.072;11.682;2023-03-26T11:06:39;3.42;;;1.80;;
21472;SDS011;10898;48.072;11.682;2023-03-26T11:09:01;2.10;;;1.55;;
21472;SDS011;10898;48.072;11.682;2023-03-26T11:11:07;2.30;;;1.42;;
21472;SDS011;10898;48.072;11.682;2023-03-26T11:13:24;3.00;;;1.60;;
21472;SDS011;10898;48.072;11.682;2023-03-26T11:16:12;2.55;;;1.50;;
21472;SDS011;10898;48.072;11.682;2023-03-26T11:18:22;2.20;;;1.67;;
21472;SDS011;10898;48.072;11.682;2023-03-26T11:32:25;2.58;;;1.88;;
21472;SDS011;10898;48.072;11.682;2023-03-26T11:37:10;2.10;;;1.90;;
21472;SDS011;10898;48.072;11.682;2023-03-26T11:39:38;2.92;;;1.73;;
21472;SDS011;10898;48.072;11.682;2023-03-26T11:42:30;3.20;;;1.77;;
21472;SDS011;10898;48.072;11.682;2023-03-26T11:44:29;4.30;;;1.95;;
21472;SDS011;10898;48.072;11.682;2023-03-26T11:48:44;1.92;;;1.50;;
21472;SDS011;10898;48.072;11.682;2023-03-26T11:51:01;3.20;;;1.63;;
21472;SDS011;10898;48.072;11.682;2023-03-26T11:53:11;3.17;;;1.60;;
21472;SDS011;10898;48.072;11.682;2023-03-26T11:55:18;2.55;;;1.20;;
21472;SDS011;10898;48.072;11.682;2023-03-26T11:57:30;1.40;;;1.30;;
21472;SDS011;10898;48.072;11.682;2023-03-26T11:59:39;1.48;;;1.30;;
21472;SDS011;10898;48.072;11.682;2023-03-26T12:01:58;2.50;;;1.90;;
21472;SDS011;10898;48.072;11.682;2023-03-26T12:04:26;3.60;;;1.38;;
21472;SDS011;10898;48.072;11.682;2023-03-26T12:06:34;2.42;;;1.25;;
21472;SDS011;10898;48.072;11.682;2023-03-26T12:08:39;1.65;;;1.55;;
21472;SDS011;10898;48.072;11.682;2023-03-26T12:10:43;2.80;;;1.70;;
21472;SDS011;10898;48.072;11.682;2023-03-26T12:12:51;2.78;;;1.50;;
21472;SDS011;10898;48.072;11.682;2023-03-26T12:14:56;3.00;;;1.63;;
21472;SDS011;10898;48.072;11.682;2023-03-26T12:19:18;3.08;;;1.98;;
21472;SDS011;10898;48.072;11.682;2023-03-26T12:21:21;3.03;;;2.00;;
21472;SDS011;10898;48.072;11.682;2023-03-26T12:26:15;4.30;;;2.50;;
21472;SDS011;10898;48.072;11.682;2023-03-26T12:28:19;3.13;;;2.03;;
21472;SDS011;10898;48.072;11.682;2023-03-26T12:32:23;4.57;;;2.35;;
21472;SDS011;10898;48.072;11.682;2023-03-26T12:34:43;5.50;;;2.40;;
21472;SDS011;10898;48.072;11.682;2023-03-26T12:36:52;1.90;;;1.70;;
21472;SDS011;10898;48.072;11.682;2023-03-26T12:39:01;3.72;;;1.80;;
21472;SDS011;10898;48.072;11.682;2023-03-26T12:41:43;1.95;;;1.85;;
21472;SDS011;10898;48.072;11.682;2023-03-26T12:44:22;3.92;;;1.60;;
21472;SDS011;10898;48.072;11.682;2023-03-26T12:46:49;3.40;;;1.70;;
21472;SDS011;10898;48.072;11.682;2023-03-26T12:49:14;2.85;;;1.63;;
21472;SDS011;10898;48.072;11.682;2023-03-26T12:51:29;2.13;;;1.60;;
21472;SDS011;10898;48.072;11.682;2023-03-26T12:56:30;2.85;;;1.50;;
21472;SDS011;10898;48.072;11.682;2023-03-26T13:00:37;1.50;;;1.40;;
21472;SDS011;10898;48.072;11.682;2023-03-26T13:19:25;1.80;;;1.42;;
21472;SDS011;10898;48.072;11.682;2023-03-26T13:23:57;1.65;;;1.10;;
21472;SDS011;10898;48.072;11.682;2023-03-26T13:28:32;1.90;;;1.20;;
21472;SDS011;10898;48.072;11.682;2023-03-26T13:33:23;1.00;;;0.90;;
21472;SDS011;10898;48.072;11.682;2023-03-26T13:40:20;2.17;;;1.35;;
21472;SDS011;10898;48.072;11.682;2023-03-26T13:47:18;1.63;;;1.05;;
21472;SDS011;10898;48.072;11.682;2023-03-26T13:49:28;1.10;;;1.00;;
21472;SDS011;10898;48.072;11.682;2023-03-26T13:51:39;1.67;;;1.30;;
21472;SDS011;10898;48.072;11.682;2023-03-26T13:53:54;2.75;;;1.63;;
21472;SDS011;10898;48.072;11.682;2023-03-26T13:55:59;2.53;;;1.27;;
21472;SDS011;10898;48.072;11.682;2023-03-26T13:58:19;1.58;;;1.40;;
21472;SDS011;10898;48.072;11.682;2023-03-26T14:02:56;2.85;;;1.35;;
21472;SDS011;10898;48.072;11.682;2023-03-26T14:07:47;1.85;;;1.67;;
21472;SDS011;10898;48.072;11.682;2023-03-26T14:12:23;1.30;;;0.95;;
21472;SDS011;10898;48.072;11.682;2023-03-26T14:14:30;1.45;;;1.33;;
21472;SDS011;10898;48.072;11.682;2023-03-26T14:16:50;1.38;;;1.27;;
21472;SDS011;10898;48.072;11.682;2023-03-26T14:19:00;1.63;;;1.13;;
21472;SDS011;10898;48.072;11.682;2023-03-26T14:35:50;1.92;;;1.08;;
21472;SDS011;10898;48.072;11.682;2023-03-26T14:47:24;1.45;;;1.10;;
21472;SDS011;10898;48.072;11.682;2023-03-26T14:54:36;1.77;;;1.20;;
21472;SDS011;10898;48.072;11.682;2023-03-26T15:01:19;1.35;;;1.25;;
21472;SDS011;10898;48.072;11.682;2023-03-26T15:15:48;2.78;;;1.30;;
21472;SDS011;10898;48.072;11.682;2023-03-26T15:23:45;2.33;;;1.40;;
21472;SDS011;10898;48.072;11.682;2023-03-26T15:30:58;1.58;;;1.25;;
21472;SDS011;10898;48.072;11.682;2023-03-26T15:46:49;2.08;;;1.77;;
21472;SDS011;10898;48.072;11.682;2023-03-26T15:58:27;1.63;;;1.50;;
21472;SDS011;10898;48.072;11.682;2023-03-26T16:01:06;1.83;;;1.20;;
21472;SDS011;10898;48.072;11.682;2023-03-26T16:04:03;2.08;;;0.90;;
21472;SDS011;10898;48.072;11.682;2023-03-26T16:15:30;3.08;;;1.00;;
21472;SDS011;10898;48.072;11.682;2023-03-26T16:20:20;2.42;;;1.20;;
21472;SDS011;10898;48.072;11.682;2023-03-26T16:25:26;2.78;;;1.98;;
21472;SDS011;10898;48.072;11.682;2023-03-26T16:27:35;1.85;;;1.02;;
21472;SDS011;10898;48.072;11.682;2023-03-26T16:30:01;1.13;;;0.93;;
21472;SDS011;10898;48.072;11.682;2023-03-26T16:32:32;1.33;;;1.23;;
21472;SDS011;10898;48.072;11.682;2023-03-26T16:37:02;1.70;;;1.30;;
21472;SDS011;10898;48.072;11.682;2023-03-26T16:39:15;3.13;;;1.20;;
21472;SDS011;10898;48.072;11.682;2023-03-26T16:41:21;2.13;;;1.02;;
21472;SDS011;10898;48.072;11.682;2023-03-26T16:50:56;2.72;;;1.02;;
21472;SDS011;10898;48.072;11.682;2023-03-26T16:55:58;1.15;;;1.02;;
21472;SDS011;10898;48.072;11.682;2023-03-26T16:58:28;1.88;;;1.40;;
21472;SDS011;10898;48.072;11.682;2023-03-26T17:00:46;4.20;;;1.70;;
21472;SDS011;10898;48.072;11.682;2023-03-26T17:05:23;1.52;;;1.42;;
21472;SDS011;10898;48.072;11.682;2023-03-26T17:07:42;3.60;;;1.45;;
21472;SDS011;10898;48.072;11.682;2023-03-26T17:14:37;2.92;;;1.60;;
21472;SDS011;10898;48.072;11.682;2023-03-26T17:19:43;2.25;;;1.30;;
21472;SDS011;10898;48.072;11.682;2023-03-26T17:26:41;1.38;;;1.25;;
21472;SDS011;10898;48.072;11.682;2023-03-26T17:37:49;1.13;;;1.10;;
21472;SDS011;10898;48.072;11.682;2023-03-26T17:41:54;1.70;;;1.20;;
21472;SDS011;10898;48.072;11.682;2023-03-26T17:44:39;1.80;;;1.10;;
21472;SDS011;10898;48.072;11.682;2023-03-26T17:46:42;1.35;;;1.27;;
21472;SDS011;10898;48.072;11.682;2023-03-26T17:48:55;1.65;;;1.40;;
21472;SDS011;10898;48.072;11.682;2023-03-26T17:53:39;1.65;;;1.17;;
21472;SDS011;10898;48.072;11.682;2023-03-26T17:57:46;1.30;;;1.20;;
21472;SDS011;10898;48.072;11.682;2023-03-26T17:59:55;1.95;;;1.10;;
21472;SDS011;10898;48.072;11.682;2023-03-26T18:01:59;1.42;;;1.20;;
21472;SDS011;10898;48.072;11.682;2023-03-26T18:04:06;1.33;;;1.23;;
21472;SDS011;10898;48.072;11.682;2023-03-26T18:17:30;1.25;;;1.15;;
21472;SDS011;10898;48.072;11.682;2023-03-26T18:19:52;0.88;;;0.88;;
21472;SDS011;10898;48.072;11.682;2023-03-26T18:22:02;1.15;;;0.93;;
21472;SDS011;10898;48.072;11.682;2023-03-26T18:24:06;0.75;;;0.75;;
21472;SDS011;10898;48.072;11.682;2023-03-26T18:26:30;1.40;;;1.17;;
21472;SDS011;10898;48.072;11.682;2023-03-26T18:28:39;1.10;;;1.00;;
21472;SDS011;10898;48.072;11.682;2023-03-26T18:30:46;1.25;;;1.15;;
21472;SDS011;10898;48.072;11.682;2023-03-26T18:32:50;1.10;;;0.90;;
21472;SDS011;10898;48.072;11.682;2023-03-26T18:35:14;0.90;;;0.90;;
21472;SDS011;10898;48.072;11.682;2023-03-26T18:37:22;1.23;;;1.13;;
21472;SDS011;10898;48.072;11.682;2023-03-26T18:39:24;2.25;;;1.40;;
21472;SDS011;10898;48.072;11.682;2023-03-26T18:41:27;1.30;;;1.20;;
21472;SDS011;10898;48.072;11.682;2023-03-26T18:43:33;1.08;;;0.98;;
21472;SDS011;10898;48.072;11.682;2023-03-26T18:45:44;1.95;;;0.93;;
21472;SDS011;10898;48.072;11.682;2023-03-26T18:47:53;0.77;;;0.77;;
21472;SDS011;10898;48.072;11.682;2023-03-26T18:49:58;1.23;;;0.90;;
21472;SDS011;10898;48.072;11.682;2023-03-26T18:52:00;1.65;;;0.90;;
21472;SDS011;10898;48.072;11.682;2023-03-26T18:54:03;0.98;;;0.98;;
21472;SDS011;10898;48.072;11.682;2023-03-26T18:56:16;1.63;;;1.00;;
21472;SDS011;10898;48.072;11.682;2023-03-26T18:58:28;1.30;;;1.20;;
21472;SDS011;10898;48.072;11.682;2023-03-26T19:00:35;1.00;;;0.90;;